Home > Products > Valid Products > MTR

000
SAUS44 KMEG 012054
MTRTUP
METAR KTUP 012053Z AUTO 20013KT 10SM OVC007 13/11 A2974 RMK AO2
SLP070 60001 T01280106 56045 $





000
SAUS44 KMEG 011954
MTRTUP
METAR KTUP 011953Z 20012KT 8SM OVC006 11/09 A2978 RMK AO2 RAB35E45
SLP083 P0001 T01110094 $





000
SAUS44 KMEG 011854
MTRTUP
METAR KTUP 011853Z 21015KT 10SM OVC007 11/09 A2983 RMK AO2 SLP099
T01110089 $





000
SAUS44 KMEG 011754
MTRTUP
METAR KTUP 011753Z 21015G23KT 10SM OVC007 11/08 A2988 RMK AO2 PK WND
21027/1739 RAB41E51 SLP116 P0000 60014 T01060083 10106 20078 58033 $





000
SAUS44 KMEG 011654
MTRTUP
METAR KTUP 011653Z 21018G23KT 10SM OVC007 10/08 A2992 RMK AO2 PK WND
20027/1634 SLP130 T01000083 $





000
SAUS44 KMEG 011654
MTRTUP
METAR KTUP 011653Z 21018G23KT 10SM OVC007 10/08 A2992 RMK AO2 PK WND
20027/1634 SLP130 T01000083 $





000
SAUS44 KMEG 011554
MTRTUP
METAR KTUP 011553Z 21013G22KT 10SM OVC007 09/08 A2995 RMK AO2 PK WND
20026/1508 RAB1458E30 SLP139 P0000 T00940078 $





000
SAUS44 KMEG 011554
MTRTUP
METAR KTUP 011553Z 21013G22KT 10SM OVC007 09/08 A2995 RMK AO2 PK WND
20026/1508 RAB1458E30 SLP139 P0000 T00940078 $





000
SAUS44 KMEG 011454
MTRTUP
METAR KTUP 011453Z 21012KT 10SM OVC008 09/07 A2997 RMK AO2 RAE39
SLP149 P0006 60014 T00890072 56010 $





000
SAUS44 KMEG 011444
MTRTUP
SPECI KTUP 011443Z 20010KT 10SM OVC009 08/07 A2998 RMK AO2 RAE39 CIG
007V012 P0006 T00830067 $





000
SAUS44 KMEG 011354
MTRTUP
METAR KTUP 011353Z 20011KT 8SM -RA BKN014 OVC080 08/06 A2999 RMK AO2
SLP154 P0004 T00780056 $





000
SAUS44 KMEG 011351
MTRTUP
SPECI KTUP 011350Z 19010KT 8SM -RA BKN014 OVC080 08/06 A2998 RMK AO2
P0004 $





000
SAUS44 KMEG 011254
MTRTUP
METAR KTUP 011253Z 18012KT 9SM -RA SCT050 OVC080 08/06 A3001 RMK AO2
SLP160 P0004 T00830056 $





000
SAUS44 KMEG 011154
MTRTUP
METAR KTUP 011153Z 20011KT 10SM -RA BKN055 OVC080 08/04 A3003 RMK
AO2 RAB24 SLP168 P0000 60000 T00830039 10100 20083 56013 $





000
SAUS44 KMEG 011054
MTRTUP
METAR KTUP 011053Z 20011KT 10SM BKN080 OVC100 09/01 A3004 RMK AO2
SLP171 T00940006 $





000
SAUS44 KMEG 010954
MTRTUP
METAR KTUP 010953Z 19013G20KT 10SM FEW070 OVC110 09/M02 A3004 RMK
AO2 SLP173 T00941017 $





000
SAUS44 KMEG 010854
MTRTUP
METAR KTUP 010853Z 20010KT 10SM OVC110 09/M03 A3007 RMK AO2 SLP181
T00941028 56022 $





000
SAUS44 KMEG 010754
MTRTUP
METAR KTUP 010753Z 20006KT 10SM CLR 09/M04 A3008 RMK AO2 SLP185
T00941039 $





000
SAUS44 KMEG 010654
MTRTUP
METAR KTUP 010653Z 19009KT 10SM CLR 09/M04 A3010 RMK AO2 SLP193
T00941039 $





000
SAUS44 KMEG 010654
MTRTUP
METAR KTUP 010653Z 19009KT 10SM CLR 09/M04 A3010 RMK AO2 SLP193
T00941039 $





000
SAUS44 KMEG 010554
MTRTUP
METAR KTUP 010553Z 20008KT 10SM SCT100 09/M04 A3013 RMK AO2 SLP204
T00941044 10106 20078 401221017 58010 $





000
SAUS44 KMEG 010554
MTRTUP
METAR KTUP 010553Z 20008KT 10SM SCT100 09/M04 A3013 RMK AO2 SLP204
T00941044 10106 20078 401221017 58010 $





000
SAUS44 KMEG 010455
MTRTUP
METAR KTUP 010453Z 19007KT 10SM CLR 10/M05 A3015 RMK AO2 SLP209
T01001050 $





000
SAUS44 KMEG 010455
MTRTUP
METAR KTUP 010453Z 19007KT 10SM CLR 10/M05 A3015 RMK AO2 SLP209
T01001050 $





000
SAUS44 KMEG 010354
MTRTUP
METAR KTUP 010353Z 22004KT 10SM CLR 09/M05 A3017 RMK AO2 SLP216
T00891050 $





000
SAUS44 KMEG 010354
MTRTUP
METAR KTUP 010353Z 22004KT 10SM CLR 09/M05 A3017 RMK AO2 SLP216
T00891050 $





000
SAUS44 KMEG 010254
MTRTUP
METAR KTUP 010253Z 16006KT 10SM CLR 09/M05 A3017 RMK AO2 SLP215
T00941050 58015 $





000
SAUS44 KMEG 010254
MTRTUP
METAR KTUP 010253Z 16006KT 10SM CLR 09/M05 A3017 RMK AO2 SLP215
T00941050 58015 $





000
SAUS44 KMEG 010154
MTRTUP
METAR KTUP 010153Z 10004KT 10SM CLR 09/M03 A3019 RMK AO2 SLP222
T00941033 $





000
SAUS44 KMEG 010154
MTRTUP
METAR KTUP 010153Z 10004KT 10SM CLR 09/M03 A3019 RMK AO2 SLP222
T00941033 $





000
SAUS44 KMEG 010055
MTRTUP
METAR KTUP 010053Z 09003KT 10SM CLR 10/M04 A3020 RMK AO2 SLP228
T01001044 $





000
SAUS44 KMEG 010055
MTRTUP
METAR KTUP 010053Z 09003KT 10SM CLR 10/M04 A3020 RMK AO2 SLP228
T01001044 $





000
SAUS44 KMEG 312354
MTRTUP
METAR KTUP 312353Z 08004KT 10SM CLR 11/M05 A3021 RMK AO2 SLP230
T01061050 10122 20100 56010 $





000
SAUS44 KMEG 312254
MTRTUP
METAR KTUP 312253Z 08003KT 10SM FEW120 12/M08 A3022 RMK AO2 SLP234
T01221078 $





000
SAUS44 KMEG 312154
MTRTUP
METAR KTUP 312153Z 10004KT 10SM CLR 12/M07 A3023 RMK AO2 SLP237
T01221072 $





000
SAUS44 KMEG 312154
MTRTUP
METAR KTUP 312153Z 10004KT 10SM CLR 12/M07 A3023 RMK AO2 SLP237
T01221072 $





000
SAUS44 KMEG 312054
MTRTUP
METAR KTUP 312053Z 10005KT 10SM CLR 12/M07 A3024 RMK AO2 SLP241
T01221072 56030 $





000
SAUS44 KMEG 311954
MTRTUP
METAR KTUP 311953Z 15005KT 10SM CLR 12/M07 A3026 RMK AO2 SLP248
T01171072 $





000
SAUS44 KMEG 311854
MTRTUP
METAR KTUP 311853Z 10005KT 10SM CLR 11/M07 A3029 RMK AO2 SLP259
T01111072 $





000
SAUS44 KMEG 311754
MTRTUP
METAR KTUP 311753Z 15006KT 10SM CLR 10/M06 A3033 RMK AO2 SLP272
T01001061 10100 20000 58023 $





000
SAUS44 KMEG 311654
MTRTUP
METAR KTUP 311653Z 15003KT 10SM CLR 08/M05 A3038 RMK AO2 SLP290
T00831050 $





000
SAUS44 KMEG 311554
MTRTUP
METAR KTUP 311553Z 13006KT 10SM CLR 06/M05 A3039 RMK AO2 SLP294
T00561050 $





000
SAUS44 KMEG 311454
MTRTUP
METAR KTUP 311453Z 10003KT 10SM CLR 03/M03 A3040 RMK AO2 SLP295
T00281033 51010 $





000
SAUS44 KMEG 311354
MTRTUP
METAR KTUP 311353Z 00000KT 10SM CLR 01/M03 A3039 RMK AO2 SLP294
T00111028 $





000
SAUS44 KMEG 311254
MTRTUP
METAR KTUP 311253Z 00000KT 10SM CLR 01/M04 A3039 RMK AO2 SLP292
T00061039 $





000
SAUS44 KMEG 311154
MTRTUP
METAR KTUP 311153Z 00000KT 10SM CLR 00/M04 A3037 RMK AO2 SLP285
T00001044 10006 21017 55004 $





000
SAUS44 KMEG 311054
MTRTUP
METAR KTUP 311053Z AUTO 00000KT 10SM CLR 00/M04 A3037 RMK AO2 SLP284
T00001044 $





000
SAUS44 KMEG 310954
MTRTUP
METAR KTUP 310953Z AUTO 05003KT 10SM CLR 00/M04 A3037 RMK AO2 SLP285
T00001039 $





000
SAUS44 KMEG 310854
MTRTUP
METAR KTUP 310853Z AUTO 04005KT 10SM CLR 00/M04 A3038 RMK AO2 SLP289
T00001039 58005 $





000
SAUS44 KMEG 310754
MTRTUP
METAR KTUP 310753Z AUTO 03006KT 10SM CLR M01/M04 A3039 RMK AO2
SLP293 T10061044 $





000
SAUS44 KMEG 310654
MTRTUP
METAR KTUP 310653Z AUTO 04004KT 10SM CLR M01/M05 A3039 RMK AO2
SLP291 T10111050 $





000
SAUS44 KMEG 310554
MTRTUP
METAR KTUP 310553Z AUTO 03004KT 10SM CLR M01/M04 A3040 RMK AO2
SLP294 T10061044 10061 21017 401001017 58007 $





000
SAUS44 KMEG 310454
MTRTUP
METAR KTUP 310453Z AUTO 00000KT 10SM CLR 01/M04 A3042 RMK AO2 SLP302
T00061039 $





000
SAUS44 KMEG 310354
MTRTUP
METAR KTUP 310353Z AUTO 04004KT 10SM CLR 00/M04 A3043 RMK AO2 SLP304
T00001044 $





000
SAUS44 KMEG 310254
MTRTUP
METAR KTUP 310253Z AUTO 03004KT 10SM CLR 01/M04 A3042 RMK AO2 SLP302
T00111039 50003 $





000
SAUS44 KMEG 310154
MTRTUP
METAR KTUP 310153Z AUTO 04003KT 10SM CLR 03/M04 A3042 RMK AO2 SLP303
T00281044 $





000
SAUS44 KMEG 310054
MTRTUP
METAR KTUP 310053Z AUTO 04003KT 10SM CLR 05/M04 A3042 RMK AO2 SLP303
T00501044





000
SAUS44 KMEG 302354
MTRTUP
METAR KTUP 302353Z AUTO 06005KT 10SM CLR 06/M05 A3041 RMK AO2 SLP298
T00611050 10100 20061 53001





000
SAUS44 KMEG 302254
MTRTUP
METAR KTUP 302253Z AUTO 06007KT 10SM CLR 08/M05 A3040 RMK AO2 SLP295
T00831050





000
SAUS44 KMEG 302154
MTRTUP
METAR KTUP 302153Z AUTO 04006KT 10SM CLR 10/M04 A3040 RMK AO2 SLP296
T01001044





000
SAUS44 KMEG 302054
MTRTUP
METAR KTUP 302053Z AUTO 05009G15KT 10SM CLR 10/M04 A3040 RMK AO2
SLP296 T01001044 56018





000
SAUS44 KMEG 301954
MTRTUP
METAR KTUP 301953Z 03013KT 10SM CLR 09/M04 A3042 RMK AO2 SLP300
T00941044





000
SAUS44 KMEG 301854
MTRTUP
METAR KTUP 301853Z 01008G18KT 10SM CLR 09/M03 A3043 RMK AO2 SLP305
T00941028





000
SAUS44 KMEG 301754
MTRTUP
METAR KTUP 301753Z 03013KT 10SM CLR 08/M03 A3046 RMK AO2 SLP315
T00831028 10083 21006 50000





000
SAUS44 KMEG 301654
MTRTUP
METAR KTUP 301653Z 03013KT 10SM CLR 08/M03 A3048 RMK AO2 SLP322
T00781028





000
SAUS44 KMEG 301554
MTRTUP
METAR KTUP 301553Z 05012KT 10SM CLR 07/M03 A3048 RMK AO2 SLP323
T00671028





000
SAUS44 KMEG 301454
MTRTUP
METAR KTUP 301453Z 03018KT 10SM CLR 05/M03 A3046 RMK AO2 SLP314
T00501028 51012





000
SAUS44 KMEG 301354
MTRTUP
METAR KTUP 301353Z 02008KT 10SM CLR 03/M02 A3044 RMK AO2 SLP310
T00331022





000
SAUS44 KMEG 301254
MTRTUP
METAR KTUP 301253Z 01006KT 10SM CLR 02/M03 A3044 RMK AO2 SLP308
T00221028





000
SAUS44 KMEG 301154
MTRTUP
METAR KTUP 301153Z 36004KT 10SM CLR 02/M03 A3042 RMK AO2 SLP302
T00221028 10067 20017 53013





000
SAUS44 KMEG 301054
MTRTUP
METAR KTUP 301053Z AUTO 35004KT 10SM CLR 03/M03 A3039 RMK AO2 SLP291
T00281028





000
SAUS44 KMEG 300954
MTRTUP
METAR KTUP 300953Z AUTO 36006KT 10SM CLR 03/M03 A3039 RMK AO2 SLP289
T00331028





000
SAUS44 KMEG 300854
MTRTUP
METAR KTUP 300853Z AUTO 35005KT 10SM CLR 04/M02 A3038 RMK AO2 SLP288
T00391022 56001





000
SAUS44 KMEG 300754
MTRTUP
METAR KTUP 300753Z AUTO 02009KT 10SM FEW037 05/M02 A3038 RMK AO2
SLP288 T00501022





000
SAUS44 KMEG 300654
MTRTUP
METAR KTUP 300653Z AUTO 03011KT 10SM OVC036 06/M02 A3038 RMK AO2
SLP287 T00611017





000
SAUS44 KMEG 300554
MTRTUP
METAR KTUP 300553Z AUTO 02016G23KT 10SM SCT030 OVC037 06/M01 A3039
RMK AO2 SLP289 T00611011 10144 20061 402000061 51024





000
SAUS44 KMEG 300537
MTRTUP
SPECI KTUP 300536Z AUTO 02015G22KT 10SM OVC030 07/M01 A3038 RMK AO2
T00671006





000
SAUS44 KMEG 300454
MTRTUP
METAR KTUP 300453Z AUTO 02017G26KT 10SM OVC029 07/M01 A3037 RMK AO2
PK WND 02026/0433 SLP284 T00671006





000
SAUS44 KMEG 300354
MTRTUP
METAR KTUP 300353Z 02016G26KT 10SM OVC028 07/01 A3035 RMK AO2 PK WND
03029/0309 SLP276 T00720006





000
SAUS44 KMEG 300328
MTRTUP
SPECI KTUP 300327Z 03018G25KT 10SM OVC028 08/01 A3034 RMK AO2 PK WND
03029/0309 T00780011





000
SAUS44 KMEG 300254
MTRTUP
METAR KTUP 300253Z 01017G24KT 10SM BKN030 OVC037 08/01 A3032 RMK AO2
SLP265 T00830011 51047





000
SAUS44 KMEG 300154
MTRTUP
METAR KTUP 300153Z 02018G24KT 10SM CLR 09/02 A3028 RMK AO2 PK WND
01027/0107 SLP253 T00890017





000
SAUS44 KMEG 300054
MTRTUP
METAR KTUP 300053Z 02019G25KT 10SM CLR 11/03 A3024 RMK AO2 PK WND
03028/0030 SLP238 T01110033





000
SAUS44 KMEG 292354
MTRTUP
METAR KTUP 292353Z 36016G22KT 10SM BKN055 14/05 A3018 RMK AO2 SLP217
T01440050 10200 20144 53028





000
SAUS44 KMEG 292254
MTRTUP
METAR KTUP 292253Z VRB06G16KT 10SM BKN045 OVC050 17/08 A3014 RMK AO2
SLP204 T01720078





000
SAUS44 KMEG 292154
MTRTUP
METAR KTUP 292153Z 33007KT 300V360 10SM FEW041 18/08 A3012 RMK AO2
SLP198 T01780083





000
SAUS44 KMEG 292154
MTRTUP
METAR KTUP 292153Z 33007KT 300V360 10SM FEW041 18/08 A3012 RMK AO2
SLP198 T01780083





    US Dept of Commerce
    National Oceanic and Atmospheric Administration
    National Weather Service
    1325 East West Highway
    Silver Spring, MD 20910
    Page Author: NWS Internet Services Team
Disclaimer
Information Quality
Credits
Glossary
Privacy Policy
Freedom of Information Act (FOIA)
About Us
Career Opportunities